sensor_id;sensor_type;location;lat;lon;timestamp;pressure;altitude;pressure_sealevel;temperature;humidity
2339;BME280;1180;51.438;6.978;2023-05-29T00:01:26;100800.78;;;16.90;62.42
2339;BME280;1180;51.438;6.978;2023-05-29T00:03:52;100797.34;;;16.89;63.09
2339;BME280;1180;51.438;6.978;2023-05-29T00:06:20;100803.72;;;17.08;62.56
2339;BME280;1180;51.438;6.978;2023-05-29T00:08:45;100792.53;;;16.85;63.59
2339;BME280;1180;51.438;6.978;2023-05-29T00:11:11;100797.00;;;17.17;62.25
2339;BME280;1180;51.438;6.978;2023-05-29T00:13:36;100795.34;;;17.04;63.17
2339;BME280;1180;51.438;6.978;2023-05-29T00:16:02;100797.81;;;17.17;62.70
2339;BME280;1180;51.438;6.978;2023-05-29T00:18:28;100809.72;;;16.86;63.44
2339;BME280;1180;51.438;6.978;2023-05-29T00:20:54;100810.91;;;16.82;64.03
2339;BME280;1180;51.438;6.978;2023-05-29T00:23:19;100814.81;;;16.65;65.09
2339;BME280;1180;51.438;6.978;2023-05-29T00:25:44;100814.88;;;16.40;65.89
2339;BME280;1180;51.438;6.978;2023-05-29T00:28:10;100815.50;;;16.67;65.77
2339;BME280;1180;51.438;6.978;2023-05-29T00:30:37;100805.72;;;16.70;66.00
2339;BME280;1180;51.438;6.978;2023-05-29T00:33:03;100811.50;;;16.63;66.53
2339;BME280;1180;51.438;6.978;2023-05-29T00:35:28;100816.56;;;16.64;66.62
2339;BME280;1180;51.438;6.978;2023-05-29T00:37:58;100818.53;;;16.38;67.61
2339;BME280;1180;51.438;6.978;2023-05-29T00:40:24;100828.19;;;16.47;68.05
2339;BME280;1180;51.438;6.978;2023-05-29T00:42:49;100820.09;;;16.05;69.52
2339;BME280;1180;51.438;6.978;2023-05-29T00:45:15;100839.31;;;15.89;70.71
2339;BME280;1180;51.438;6.978;2023-05-29T00:47:41;100838.13;;;15.69;71.63
2339;BME280;1180;51.438;6.978;2023-05-29T00:50:08;100845.16;;;15.42;72.55
2339;BME280;1180;51.438;6.978;2023-05-29T00:52:34;100854.06;;;15.38;73.33
2339;BME280;1180;51.438;6.978;2023-05-29T00:55:00;100848.38;;;14.96;75.57
2339;BME280;1180;51.438;6.978;2023-05-29T00:57:27;100855.69;;;14.76;77.02
2339;BME280;1180;51.438;6.978;2023-05-29T00:59:53;100859.00;;;15.04;76.42
2339;BME280;1180;51.438;6.978;2023-05-29T01:02:20;100857.53;;;15.13;76.10
2339;BME280;1180;51.438;6.978;2023-05-29T01:04:45;100852.91;;;14.92;77.41
2339;BME280;1180;51.438;6.978;2023-05-29T01:07:11;100854.56;;;15.06;76.32
2339;BME280;1180;51.438;6.978;2023-05-29T01:09:37;100852.81;;;14.94;76.67
2339;BME280;1180;51.438;6.978;2023-05-29T01:20:58;100851.25;;;14.91;77.75
2339;BME280;1180;51.438;6.978;2023-05-29T01:26:20;100861.88;;;14.86;78.20
2339;BME280;1180;51.438;6.978;2023-05-29T01:28:51;100857.47;;;14.76;78.86
2339;BME280;1180;51.438;6.978;2023-05-29T01:31:21;100868.16;;;14.69;79.31
2339;BME280;1180;51.438;6.978;2023-05-29T01:33:57;100869.84;;;14.17;81.83
2339;BME280;1180;51.438;6.978;2023-05-29T01:36:24;100870.25;;;14.11;82.39
2339;BME280;1180;51.438;6.978;2023-05-29T01:38:51;100863.69;;;14.05;83.13
2339;BME280;1180;51.438;6.978;2023-05-29T01:41:18;100864.44;;;14.07;83.49
2339;BME280;1180;51.438;6.978;2023-05-29T01:43:45;100867.78;;;14.22;83.00
2339;BME280;1180;51.438;6.978;2023-05-29T01:46:14;100871.25;;;14.49;81.36
2339;BME280;1180;51.438;6.978;2023-05-29T01:48:41;100871.53;;;14.31;79.89
2339;BME280;1180;51.438;6.978;2023-05-29T01:51:08;100874.53;;;13.97;81.50
2339;BME280;1180;51.438;6.978;2023-05-29T01:53:33;100878.78;;;14.39;79.64
2339;BME280;1180;51.438;6.978;2023-05-29T01:55:59;100880.88;;;14.19;78.85
2339;BME280;1180;51.438;6.978;2023-05-29T01:58:25;100873.81;;;13.95;79.17
2339;BME280;1180;51.438;6.978;2023-05-29T02:00:51;100885.53;;;13.86;79.51
2339;BME280;1180;51.438;6.978;2023-05-29T02:03:18;100886.97;;;13.63;79.47
2339;BME280;1180;51.438;6.978;2023-05-29T02:05:43;100877.41;;;13.51;80.29
2339;BME280;1180;51.438;6.978;2023-05-29T02:08:09;100884.78;;;13.42;80.19
2339;BME280;1180;51.438;6.978;2023-05-29T02:10:34;100887.09;;;13.18;81.27
2339;BME280;1180;51.438;6.978;2023-05-29T02:13:00;100886.97;;;13.20;82.04
2339;BME280;1180;51.438;6.978;2023-05-29T02:15:25;100890.38;;;13.35;81.25
2339;BME280;1180;51.438;6.978;2023-05-29T02:17:50;100895.84;;;13.45;80.40
2339;BME280;1180;51.438;6.978;2023-05-29T02:20:16;100898.34;;;13.46;80.20
2339;BME280;1180;51.438;6.978;2023-05-29T02:22:42;100896.81;;;13.42;80.68
2339;BME280;1180;51.438;6.978;2023-05-29T02:25:08;100899.69;;;13.37;80.91
2339;BME280;1180;51.438;6.978;2023-05-29T02:27:33;100883.88;;;13.29;80.78
2339;BME280;1180;51.438;6.978;2023-05-29T02:29:58;100882.03;;;13.46;79.80
2339;BME280;1180;51.438;6.978;2023-05-29T02:32:24;100890.00;;;13.41;79.77
2339;BME280;1180;51.438;6.978;2023-05-29T02:34:51;100887.19;;;13.60;78.85
2339;BME280;1180;51.438;6.978;2023-05-29T02:37:17;100889.63;;;13.76;77.99
2339;BME280;1180;51.438;6.978;2023-05-29T02:39:42;100900.63;;;13.51;78.76
2339;BME280;1180;51.438;6.978;2023-05-29T02:42:08;100888.72;;;13.63;78.90
2339;BME280;1180;51.438;6.978;2023-05-29T02:44:33;100888.38;;;13.96;76.86
2339;BME280;1180;51.438;6.978;2023-05-29T02:46:58;100894.59;;;13.79;77.63
2339;BME280;1180;51.438;6.978;2023-05-29T02:49:24;100896.59;;;13.74;78.05
2339;BME280;1180;51.438;6.978;2023-05-29T02:51:50;100890.28;;;14.20;76.46
2339;BME280;1180;51.438;6.978;2023-05-29T02:54:18;100895.72;;;14.43;75.44
2339;BME280;1180;51.438;6.978;2023-05-29T02:56:43;100899.69;;;14.21;75.90
2339;BME280;1180;51.438;6.978;2023-05-29T02:59:09;100898.03;;;14.20;75.19
2339;BME280;1180;51.438;6.978;2023-05-29T03:01:34;100903.72;;;13.70;77.58
2339;BME280;1180;51.438;6.978;2023-05-29T03:04:00;100906.38;;;13.69;77.64
2339;BME280;1180;51.438;6.978;2023-05-29T03:06:25;100905.41;;;13.99;76.45
2339;BME280;1180;51.438;6.978;2023-05-29T03:08:50;100905.78;;;14.20;75.82
2339;BME280;1180;51.438;6.978;2023-05-29T03:11:16;100905.56;;;14.10;76.12
2339;BME280;1180;51.438;6.978;2023-05-29T03:13:42;100907.34;;;13.95;77.04
2339;BME280;1180;51.438;6.978;2023-05-29T03:16:08;100913.81;;;13.88;77.13
2339;BME280;1180;51.438;6.978;2023-05-29T03:18:33;100916.41;;;14.15;76.30
2339;BME280;1180;51.438;6.978;2023-05-29T03:20:59;100918.97;;;13.88;77.97
2339;BME280;1180;51.438;6.978;2023-05-29T03:23:25;100911.97;;;14.18;77.05
2339;BME280;1180;51.438;6.978;2023-05-29T03:25:50;100909.34;;;14.05;76.48
2339;BME280;1180;51.438;6.978;2023-05-29T03:28:16;100914.03;;;13.56;78.35
2339;BME280;1180;51.438;6.978;2023-05-29T03:30:41;100909.94;;;13.53;79.29
2339;BME280;1180;51.438;6.978;2023-05-29T03:33:07;100913.38;;;13.81;78.62
2339;BME280;1180;51.438;6.978;2023-05-29T03:35:33;100909.88;;;13.82;78.36
2339;BME280;1180;51.438;6.978;2023-05-29T03:38:00;100912.50;;;13.53;79.73
2339;BME280;1180;51.438;6.978;2023-05-29T03:40:25;100909.44;;;13.18;81.88
2339;BME280;1180;51.438;6.978;2023-05-29T03:42:51;100915.34;;;13.49;81.29
2339;BME280;1180;51.438;6.978;2023-05-29T03:45:17;100909.44;;;13.18;82.00
2339;BME280;1180;51.438;6.978;2023-05-29T03:47:42;100917.44;;;12.98;83.27
2339;BME280;1180;51.438;6.978;2023-05-29T03:50:08;100910.81;;;13.09;83.05
2339;BME280;1180;51.438;6.978;2023-05-29T03:52:34;100913.19;;;12.97;83.78
2339;BME280;1180;51.438;6.978;2023-05-29T03:54:59;100917.25;;;13.02;83.24
2339;BME280;1180;51.438;6.978;2023-05-29T03:57:25;100914.41;;;13.21;83.39
2339;BME280;1180;51.438;6.978;2023-05-29T03:59:52;100923.41;;;12.99;83.48
2339;BME280;1180;51.438;6.978;2023-05-29T04:02:18;100925.19;;;12.68;85.15
2339;BME280;1180;51.438;6.978;2023-05-29T04:04:43;100933.47;;;12.42;87.02
2339;BME280;1180;51.438;6.978;2023-05-29T04:07:09;100934.84;;;12.18;88.73
2339;BME280;1180;51.438;6.978;2023-05-29T04:09:36;100944.13;;;12.20;89.54
2339;BME280;1180;51.438;6.978;2023-05-29T04:12:03;100934.16;;;12.30;88.86
2339;BME280;1180;51.438;6.978;2023-05-29T04:14:31;100931.88;;;12.56;87.92
2339;BME280;1180;51.438;6.978;2023-05-29T04:16:56;100939.06;;;12.96;85.70
2339;BME280;1180;51.438;6.978;2023-05-29T04:19:22;100941.22;;;12.73;86.07
2339;BME280;1180;51.438;6.978;2023-05-29T04:21:47;100941.78;;;12.78;86.62
2339;BME280;1180;51.438;6.978;2023-05-29T04:24:16;100945.66;;;12.85;85.98
2339;BME280;1180;51.438;6.978;2023-05-29T04:26:41;100941.75;;;13.23;85.66
2339;BME280;1180;51.438;6.978;2023-05-29T04:29:08;100939.22;;;13.52;82.89
2339;BME280;1180;51.438;6.978;2023-05-29T04:31:34;100938.53;;;13.78;82.08
2339;BME280;1180;51.438;6.978;2023-05-29T04:34:02;100936.22;;;13.73;81.43
2339;BME280;1180;51.438;6.978;2023-05-29T04:36:30;100932.75;;;13.60;81.21
2339;BME280;1180;51.438;6.978;2023-05-29T04:38:58;100939.59;;;13.46;82.44
2339;BME280;1180;51.438;6.978;2023-05-29T04:41:24;100945.63;;;13.31;83.50
2339;BME280;1180;51.438;6.978;2023-05-29T04:43:55;100938.47;;;13.50;81.52
2339;BME280;1180;51.438;6.978;2023-05-29T04:46:25;100955.19;;;13.14;84.33
2339;BME280;1180;51.438;6.978;2023-05-29T04:48:54;100953.25;;;13.03;84.14
2339;BME280;1180;51.438;6.978;2023-05-29T04:51:23;100960.50;;;12.96;85.66
2339;BME280;1180;51.438;6.978;2023-05-29T04:53:50;100965.13;;;12.75;86.58
2339;BME280;1180;51.438;6.978;2023-05-29T04:56:18;100966.06;;;12.74;86.88
2339;BME280;1180;51.438;6.978;2023-05-29T04:58:45;100967.41;;;12.65;87.40
2339;BME280;1180;51.438;6.978;2023-05-29T05:01:11;100972.41;;;12.36;89.02
2339;BME280;1180;51.438;6.978;2023-05-29T05:03:40;100974.91;;;12.54;88.06
2339;BME280;1180;51.438;6.978;2023-05-29T05:06:07;100982.94;;;12.64;87.81
2339;BME280;1180;51.438;6.978;2023-05-29T05:08:33;100968.25;;;12.66;86.99
2339;BME280;1180;51.438;6.978;2023-05-29T05:11:00;100980.50;;;12.77;86.56
2339;BME280;1180;51.438;6.978;2023-05-29T05:13:26;100984.47;;;13.13;86.21
2339;BME280;1180;51.438;6.978;2023-05-29T05:15:53;100979.06;;;13.47;83.88
2339;BME280;1180;51.438;6.978;2023-05-29T05:18:18;100984.22;;;13.76;82.56
2339;BME280;1180;51.438;6.978;2023-05-29T05:20:44;100982.59;;;13.60;82.58
2339;BME280;1180;51.438;6.978;2023-05-29T05:23:10;100981.69;;;13.16;84.32
2339;BME280;1180;51.438;6.978;2023-05-29T05:25:37;100982.00;;;13.40;84.45
2339;BME280;1180;51.438;6.978;2023-05-29T05:28:05;100980.84;;;13.46;83.95
2339;BME280;1180;51.438;6.978;2023-05-29T05:30:31;100969.41;;;13.50;82.30
2339;BME280;1180;51.438;6.978;2023-05-29T05:32:57;100963.97;;;13.69;84.24
2339;BME280;1180;51.438;6.978;2023-05-29T05:35:23;100972.72;;;13.52;82.75
2339;BME280;1180;51.438;6.978;2023-05-29T05:37:49;100973.00;;;13.62;81.39
2339;BME280;1180;51.438;6.978;2023-05-29T05:40:14;100978.59;;;13.69;81.18
2339;BME280;1180;51.438;6.978;2023-05-29T05:42:40;100972.34;;;13.88;80.74
2339;BME280;1180;51.438;6.978;2023-05-29T05:45:06;100970.47;;;13.32;81.45
2339;BME280;1180;51.438;6.978;2023-05-29T05:47:32;100986.00;;;13.46;82.15
2339;BME280;1180;51.438;6.978;2023-05-29T05:49:58;100976.69;;;13.43;81.84
2339;BME280;1180;51.438;6.978;2023-05-29T05:52:24;100980.09;;;13.44;81.78
2339;BME280;1180;51.438;6.978;2023-05-29T05:54:51;100971.75;;;13.24;81.57
2339;BME280;1180;51.438;6.978;2023-05-29T05:57:17;100970.00;;;13.25;82.50
2339;BME280;1180;51.438;6.978;2023-05-29T05:59:43;100966.59;;;13.24;82.20
2339;BME280;1180;51.438;6.978;2023-05-29T06:02:08;100965.97;;;13.35;81.90
2339;BME280;1180;51.438;6.978;2023-05-29T06:04:34;100967.19;;;13.58;80.89
2339;BME280;1180;51.438;6.978;2023-05-29T06:07:00;100973.00;;;13.62;80.74
2339;BME280;1180;51.438;6.978;2023-05-29T06:09:26;100973.72;;;13.50;81.16
2339;BME280;1180;51.438;6.978;2023-05-29T06:11:51;100977.56;;;14.00;79.89
2339;BME280;1180;51.438;6.978;2023-05-29T06:14:18;100973.53;;;13.96;79.07
2339;BME280;1180;51.438;6.978;2023-05-29T06:16:43;100980.09;;;14.15;79.01
2339;BME280;1180;51.438;6.978;2023-05-29T06:19:09;100988.34;;;14.62;81.12
2339;BME280;1180;51.438;6.978;2023-05-29T06:21:35;100984.00;;;15.03;76.83
2339;BME280;1180;51.438;6.978;2023-05-29T06:24:01;100988.50;;;14.86;74.33
2339;BME280;1180;51.438;6.978;2023-05-29T06:26:27;100992.13;;;14.43;75.72
2339;BME280;1180;51.438;6.978;2023-05-29T06:28:53;100993.66;;;14.19;76.57
2339;BME280;1180;51.438;6.978;2023-05-29T06:31:19;100993.66;;;14.46;75.73
2339;BME280;1180;51.438;6.978;2023-05-29T06:33:45;100995.31;;;14.75;75.71
2339;BME280;1180;51.438;6.978;2023-05-29T06:36:10;100990.94;;;14.35;75.97
2339;BME280;1180;51.438;6.978;2023-05-29T06:38:36;100989.88;;;14.10;77.60
2339;BME280;1180;51.438;6.978;2023-05-29T06:41:02;100993.47;;;14.49;76.41
2339;BME280;1180;51.438;6.978;2023-05-29T06:43:28;100988.03;;;14.67;76.27
2339;BME280;1180;51.438;6.978;2023-05-29T06:45:55;100980.47;;;14.91;75.42
2339;BME280;1180;51.438;6.978;2023-05-29T06:48:21;100986.22;;;14.54;74.93
2339;BME280;1180;51.438;6.978;2023-05-29T06:50:50;100988.34;;;14.35;77.14
2339;BME280;1180;51.438;6.978;2023-05-29T06:53:15;100989.66;;;14.55;76.26
2339;BME280;1180;51.438;6.978;2023-05-29T06:55:41;100978.56;;;14.40;76.43
2339;BME280;1180;51.438;6.978;2023-05-29T06:58:07;100975.38;;;14.90;75.92
2339;BME280;1180;51.438;6.978;2023-05-29T07:00:32;100979.66;;;15.16;74.22
2339;BME280;1180;51.438;6.978;2023-05-29T07:02:58;100982.88;;;15.46;72.51
2339;BME280;1180;51.438;6.978;2023-05-29T07:05:26;100981.31;;;15.56;71.17
2339;BME280;1180;51.438;6.978;2023-05-29T07:07:51;100983.56;;;14.96;72.52
2339;BME280;1180;51.438;6.978;2023-05-29T07:10:17;100977.19;;;15.02;73.14
2339;BME280;1180;51.438;6.978;2023-05-29T07:12:43;101000.75;;;15.23;72.37
2339;BME280;1180;51.438;6.978;2023-05-29T07:15:09;100989.41;;;15.13;72.92
2339;BME280;1180;51.438;6.978;2023-05-29T07:17:35;100995.19;;;15.29;73.14
2339;BME280;1180;51.438;6.978;2023-05-29T07:20:01;100992.69;;;15.41;72.55
2339;BME280;1180;51.438;6.978;2023-05-29T07:22:26;100995.59;;;15.49;72.66
2339;BME280;1180;51.438;6.978;2023-05-29T07:24:52;100995.88;;;15.57;72.57
2339;BME280;1180;51.438;6.978;2023-05-29T07:27:18;100997.25;;;15.37;72.35
2339;BME280;1180;51.438;6.978;2023-05-29T07:29:44;100998.34;;;14.94;73.83
2339;BME280;1180;51.438;6.978;2023-05-29T07:32:10;101002.38;;;14.98;74.50
2339;BME280;1180;51.438;6.978;2023-05-29T07:34:36;101003.03;;;15.02;74.21
2339;BME280;1180;51.438;6.978;2023-05-29T07:37:05;101017.53;;;15.56;72.95
2339;BME280;1180;51.438;6.978;2023-05-29T07:39:33;101016.59;;;15.57;71.48
2339;BME280;1180;51.438;6.978;2023-05-29T07:42:02;101016.25;;;15.10;72.81
2339;BME280;1180;51.438;6.978;2023-05-29T07:44:28;101015.03;;;15.03;73.77
2339;BME280;1180;51.438;6.978;2023-05-29T07:46:53;101025.00;;;14.82;74.27
2339;BME280;1180;51.438;6.978;2023-05-29T07:49:20;101019.34;;;15.02;74.18
2339;BME280;1180;51.438;6.978;2023-05-29T07:51:46;101018.16;;;15.21;73.80
2339;BME280;1180;51.438;6.978;2023-05-29T07:54:11;101019.06;;;15.07;73.96
2339;BME280;1180;51.438;6.978;2023-05-29T07:56:37;101024.56;;;15.28;73.27
2339;BME280;1180;51.438;6.978;2023-05-29T07:59:03;101024.75;;;15.25;73.61
2339;BME280;1180;51.438;6.978;2023-05-29T08:01:29;101038.84;;;15.60;73.28
2339;BME280;1180;51.438;6.978;2023-05-29T08:03:55;101038.59;;;16.02;71.93
2339;BME280;1180;51.438;6.978;2023-05-29T08:06:21;101039.94;;;16.08;70.68
2339;BME280;1180;51.438;6.978;2023-05-29T08:08:47;101042.94;;;16.14;69.22
2339;BME280;1180;51.438;6.978;2023-05-29T08:11:12;101036.13;;;15.74;70.87
2339;BME280;1180;51.438;6.978;2023-05-29T08:13:38;101041.72;;;15.81;70.88
2339;BME280;1180;51.438;6.978;2023-05-29T08:16:03;101039.38;;;15.91;72.33
2339;BME280;1180;51.438;6.978;2023-05-29T08:18:30;101043.03;;;16.37;70.18
2339;BME280;1180;51.438;6.978;2023-05-29T08:20:56;101036.72;;;16.04;70.16
2339;BME280;1180;51.438;6.978;2023-05-29T08:23:21;101041.44;;;16.23;70.44
2339;BME280;1180;51.438;6.978;2023-05-29T08:25:46;101037.41;;;16.19;70.50
2339;BME280;1180;51.438;6.978;2023-05-29T08:28:13;101036.47;;;16.57;69.06
2339;BME280;1180;51.438;6.978;2023-05-29T08:30:39;101046.25;;;16.65;68.54
2339;BME280;1180;51.438;6.978;2023-05-29T08:33:05;101038.75;;;16.49;68.75
2339;BME280;1180;51.438;6.978;2023-05-29T08:35:30;101055.69;;;16.42;68.88
2339;BME280;1180;51.438;6.978;2023-05-29T08:37:55;101042.72;;;16.17;70.01
2339;BME280;1180;51.438;6.978;2023-05-29T08:40:21;101042.94;;;16.39;69.49
2339;BME280;1180;51.438;6.978;2023-05-29T08:42:51;101042.13;;;16.63;69.80
2339;BME280;1180;51.438;6.978;2023-05-29T08:45:22;101045.22;;;16.43;69.21
2339;BME280;1180;51.438;6.978;2023-05-29T08:47:52;101040.47;;;16.62;68.62
2339;BME280;1180;51.438;6.978;2023-05-29T08:50:19;101045.06;;;16.94;67.53
2339;BME280;1180;51.438;6.978;2023-05-29T08:52:45;101052.09;;;16.80;67.65
2339;BME280;1180;51.438;6.978;2023-05-29T08:55:11;101043.78;;;16.64;67.44
2339;BME280;1180;51.438;6.978;2023-05-29T08:57:37;101047.06;;;16.90;68.77
2339;BME280;1180;51.438;6.978;2023-05-29T09:00:06;101045.81;;;17.43;67.98
2339;BME280;1180;51.438;6.978;2023-05-29T09:02:41;101051.59;;;17.69;64.46
2339;BME280;1180;51.438;6.978;2023-05-29T09:05:09;101052.03;;;17.40;65.32
2339;BME280;1180;51.438;6.978;2023-05-29T09:07:35;101046.97;;;17.50;65.57
2339;BME280;1180;51.438;6.978;2023-05-29T09:10:07;101059.19;;;16.89;66.23
2339;BME280;1180;51.438;6.978;2023-05-29T09:12:34;101058.97;;;16.93;67.70
2339;BME280;1180;51.438;6.978;2023-05-29T09:15:00;101060.78;;;17.03;66.98
2339;BME280;1180;51.438;6.978;2023-05-29T09:17:30;101060.94;;;17.13;66.27
2339;BME280;1180;51.438;6.978;2023-05-29T09:19:56;101054.78;;;17.50;66.53
2339;BME280;1180;51.438;6.978;2023-05-29T09:22:22;101051.81;;;17.55;64.71
2339;BME280;1180;51.438;6.978;2023-05-29T09:24:48;101055.44;;;17.18;65.54
2339;BME280;1180;51.438;6.978;2023-05-29T09:27:14;101065.75;;;17.07;66.12
2339;BME280;1180;51.438;6.978;2023-05-29T09:29:41;101068.69;;;17.02;66.28
2339;BME280;1180;51.438;6.978;2023-05-29T09:32:11;101071.13;;;17.28;65.85
2339;BME280;1180;51.438;6.978;2023-05-29T09:34:37;101064.34;;;17.61;64.94
2339;BME280;1180;51.438;6.978;2023-05-29T09:37:04;101070.94;;;17.65;64.10
2339;BME280;1180;51.438;6.978;2023-05-29T09:42:08;101065.63;;;17.44;65.24
2339;BME280;1180;51.438;6.978;2023-05-29T09:44:34;101072.00;;;17.51;64.49
2339;BME280;1180;51.438;6.978;2023-05-29T09:46:59;101070.34;;;17.61;64.45
2339;BME280;1180;51.438;6.978;2023-05-29T09:49:25;101064.34;;;17.61;64.53
2339;BME280;1180;51.438;6.978;2023-05-29T09:51:56;101068.81;;;17.82;63.78
2339;BME280;1180;51.438;6.978;2023-05-29T09:54:26;101067.06;;;18.05;63.47
2339;BME280;1180;51.438;6.978;2023-05-29T09:56:54;101068.00;;;17.93;62.18
2339;BME280;1180;51.438;6.978;2023-05-29T09:59:23;101059.38;;;18.26;63.48
2339;BME280;1180;51.438;6.978;2023-05-29T10:01:49;101071.84;;;18.44;62.31
2339;BME280;1180;51.438;6.978;2023-05-29T10:04:20;101072.91;;;18.41;61.45
2339;BME280;1180;51.438;6.978;2023-05-29T10:06:46;101062.81;;;18.59;61.66
2339;BME280;1180;51.438;6.978;2023-05-29T10:09:15;101076.06;;;18.45;60.52
2339;BME280;1180;51.438;6.978;2023-05-29T10:11:43;101063.69;;;18.48;61.69
2339;BME280;1180;51.438;6.978;2023-05-29T10:14:13;101047.50;;;18.45;61.02
2339;BME280;1180;51.438;6.978;2023-05-29T10:16:43;101062.44;;;18.31;62.13
2339;BME280;1180;51.438;6.978;2023-05-29T10:19:14;101056.91;;;18.57;61.01
2339;BME280;1180;51.438;6.978;2023-05-29T10:21:42;101060.22;;;18.59;60.71
2339;BME280;1180;51.438;6.978;2023-05-29T10:24:11;101057.66;;;18.81;60.47
2339;BME280;1180;51.438;6.978;2023-05-29T10:26:39;101071.25;;;18.73;61.25
2339;BME280;1180;51.438;6.978;2023-05-29T10:31:50;101068.03;;;18.59;60.50
2339;BME280;1180;51.438;6.978;2023-05-29T10:37:37;101060.56;;;18.55;59.92
2339;BME280;1180;51.438;6.978;2023-05-29T10:40:06;101048.97;;;18.91;59.16
2339;BME280;1180;51.438;6.978;2023-05-29T10:42:50;101048.72;;;18.95;58.98
2339;BME280;1180;51.438;6.978;2023-05-29T10:45:47;101049.16;;;18.79;59.15
2339;BME280;1180;51.438;6.978;2023-05-29T10:50:41;101053.75;;;18.75;60.49
2339;BME280;1180;51.438;6.978;2023-05-29T10:53:14;101051.16;;;18.75;59.40
2339;BME280;1180;51.438;6.978;2023-05-29T10:55:41;101038.28;;;19.06;60.22
2339;BME280;1180;51.438;6.978;2023-05-29T10:58:07;101039.91;;;19.59;59.29
2339;BME280;1180;51.438;6.978;2023-05-29T11:00:33;101036.56;;;19.78;57.69
2339;BME280;1180;51.438;6.978;2023-05-29T11:03:07;101035.00;;;19.97;56.58
2339;BME280;1180;51.438;6.978;2023-05-29T11:05:33;101032.25;;;19.99;55.18
2339;BME280;1180;51.438;6.978;2023-05-29T11:08:00;101031.28;;;19.28;56.60
2339;BME280;1180;51.438;6.978;2023-05-29T11:13:34;101044.06;;;20.13;56.61
2339;BME280;1180;51.438;6.978;2023-05-29T11:18:51;101038.78;;;19.83;55.69
2339;BME280;1180;51.438;6.978;2023-05-29T11:21:37;101035.84;;;20.08;56.23
2339;BME280;1180;51.438;6.978;2023-05-29T11:24:18;101037.69;;;19.55;56.39
2339;BME280;1180;51.438;6.978;2023-05-29T11:26:46;101037.63;;;19.97;58.97
2339;BME280;1180;51.438;6.978;2023-05-29T11:29:12;101034.19;;;20.06;55.95
2339;BME280;1180;51.438;6.978;2023-05-29T11:31:39;101028.78;;;19.88;55.49
2339;BME280;1180;51.438;6.978;2023-05-29T11:34:09;101035.34;;;19.83;55.71
2339;BME280;1180;51.438;6.978;2023-05-29T11:36:36;101029.03;;;19.44;55.37
2339;BME280;1180;51.438;6.978;2023-05-29T11:39:02;101041.75;;;19.16;56.82
2339;BME280;1180;51.438;6.978;2023-05-29T11:41:29;101024.97;;;18.88;57.74
2339;BME280;1180;51.438;6.978;2023-05-29T11:44:02;101029.00;;;19.13;57.91
2339;BME280;1180;51.438;6.978;2023-05-29T11:46:28;101024.56;;;19.56;56.64
2339;BME280;1180;51.438;6.978;2023-05-29T11:48:58;101013.56;;;19.53;55.99
2339;BME280;1180;51.438;6.978;2023-05-29T11:51:23;101018.75;;;19.43;56.66
2339;BME280;1180;51.438;6.978;2023-05-29T11:53:49;101019.13;;;19.69;57.69
2339;BME280;1180;51.438;6.978;2023-05-29T11:56:18;101017.41;;;19.89;55.76
2339;BME280;1180;51.438;6.978;2023-05-29T11:58:44;101014.09;;;19.87;55.23
2339;BME280;1180;51.438;6.978;2023-05-29T12:01:11;101012.72;;;19.83;55.69
2339;BME280;1180;51.438;6.978;2023-05-29T12:03:40;101008.47;;;19.82;56.18
2339;BME280;1180;51.438;6.978;2023-05-29T12:06:07;101017.03;;;19.94;55.72
2339;BME280;1180;51.438;6.978;2023-05-29T12:08:33;101019.44;;;20.37;55.45
2339;BME280;1180;51.438;6.978;2023-05-29T12:10:59;101019.13;;;20.69;55.62
2339;BME280;1180;51.438;6.978;2023-05-29T12:13:24;101020.50;;;20.34;55.25
2339;BME280;1180;51.438;6.978;2023-05-29T12:15:53;101016.41;;;20.51;54.98
2339;BME280;1180;51.438;6.978;2023-05-29T12:18:20;101017.31;;;21.09;53.58
2339;BME280;1180;51.438;6.978;2023-05-29T12:20:45;101024.47;;;21.55;53.90
2339;BME280;1180;51.438;6.978;2023-05-29T12:23:11;101027.09;;;20.48;53.80
2339;BME280;1180;51.438;6.978;2023-05-29T12:25:37;101030.69;;;20.27;54.87
2339;BME280;1180;51.438;6.978;2023-05-29T12:28:03;101014.47;;;20.63;54.24
2339;BME280;1180;51.438;6.978;2023-05-29T12:30:29;101017.06;;;21.02;54.40
2339;BME280;1180;51.438;6.978;2023-05-29T12:32:55;101012.00;;;20.91;54.08
2339;BME280;1180;51.438;6.978;2023-05-29T12:35:25;101011.88;;;20.92;53.43
2339;BME280;1180;51.438;6.978;2023-05-29T12:40:29;101013.91;;;22.02;53.19
2339;BME280;1180;51.438;6.978;2023-05-29T12:42:59;101008.50;;;21.86;51.16
2339;BME280;1180;51.438;6.978;2023-05-29T12:45:28;101014.97;;;22.10;51.94
2339;BME280;1180;51.438;6.978;2023-05-29T12:47:55;101013.16;;;21.64;51.32
2339;BME280;1180;51.438;6.978;2023-05-29T12:50:26;101020.03;;;21.65;51.05
2339;BME280;1180;51.438;6.978;2023-05-29T12:53:02;101006.44;;;21.24;51.55
2339;BME280;1180;51.438;6.978;2023-05-29T12:55:30;101022.34;;;21.20;52.50
2339;BME280;1180;51.438;6.978;2023-05-29T12:57:58;101018.72;;;21.41;53.09
2339;BME280;1180;51.438;6.978;2023-05-29T13:00:23;101019.50;;;22.07;51.80
2339;BME280;1180;51.438;6.978;2023-05-29T13:02:49;101023.09;;;22.06;50.01
2339;BME280;1180;51.438;6.978;2023-05-29T13:05:15;101027.41;;;21.70;51.20
2339;BME280;1180;51.438;6.978;2023-05-29T13:07:42;101015.66;;;21.56;50.54
2339;BME280;1180;51.438;6.978;2023-05-29T13:10:07;101015.81;;;21.44;50.97
2339;BME280;1180;51.438;6.978;2023-05-29T13:12:34;101023.81;;;20.75;51.22
2339;BME280;1180;51.438;6.978;2023-05-29T13:15:00;101017.22;;;21.01;52.66
2339;BME280;1180;51.438;6.978;2023-05-29T13:17:25;101009.31;;;21.68;50.93
2339;BME280;1180;51.438;6.978;2023-05-29T13:19:50;101017.75;;;21.42;50.91
2339;BME280;1180;51.438;6.978;2023-05-29T13:22:16;101024.06;;;21.12;51.78
2339;BME280;1180;51.438;6.978;2023-05-29T13:24:41;101029.34;;;21.30;51.90
2339;BME280;1180;51.438;6.978;2023-05-29T13:27:07;101016.53;;;20.99;51.61
2339;BME280;1180;51.438;6.978;2023-05-29T13:29:32;101016.81;;;20.76;52.72
2339;BME280;1180;51.438;6.978;2023-05-29T13:31:58;101016.28;;;20.82;52.62
2339;BME280;1180;51.438;6.978;2023-05-29T13:34:23;101013.91;;;20.69;52.76
2339;BME280;1180;51.438;6.978;2023-05-29T13:36:54;101008.03;;;20.97;52.75
2339;BME280;1180;51.438;6.978;2023-05-29T13:39:19;101008.38;;;21.21;51.30